Time;durP1;ratioP1;P1;durP2;ratioP2;P2;SDS_P1;SDS_P2;PMS_P1;PMS_P2;Temp;Humidity;BMP_temperature;BMP_pressure;BME280_temperature;BME280_humidity;BME280_pressure;Samples;Min_cycle;Max_cycle;Signal;HPM_P1;HPM_P2
2021/12/11 00:01:37;;;;;;;30.23;17.70;;;2.30;99.90;;;;;;6155290;22;20009;-87
2021/12/11 00:04:07;;;;;;;33.88;18.67;;;2.20;99.90;;;;;;6258974;22;20056;-88
2021/12/11 00:06:39;;;;;;;30.27;17.95;;;2.20;99.90;;;;;;6154315;22;20070;-88
2021/12/11 00:09:16;;;;;;;32.85;17.40;;;2.50;99.90;;;;;;6154868;23;20017;-88
2021/12/11 00:11:45;;;;;;;42.55;17.58;;;2.30;99.90;;;;;;6154792;23;20048;-88
2021/12/11 00:14:13;;;;;;;29.30;17.80;;;2.20;99.90;;;;;;6154562;23;20328;-88
2021/12/11 00:16:40;;;;;;;31.88;17.35;;;4.30;99.90;;;;;;6154655;23;20020;-88
2021/12/11 00:19:15;;;;;;;29.15;18.15;;;2.60;99.90;;;;;;6154575;22;20021;-87
2021/12/11 00:21:41;;;;;;;34.03;17.67;;;3.10;99.90;;;;;;6154267;23;20043;-87
2021/12/11 00:24:10;;;;;;;28.42;17.00;;;3.10;99.90;;;;;;6154548;23;20439;-88
2021/12/11 00:26:41;;;;;;;32.58;16.90;;;2.30;99.90;;;;;;6154870;22;20013;-87
2021/12/11 00:29:09;;;;;;;31.33;16.27;;;2.20;99.90;;;;;;6154431;23;20017;-88
2021/12/11 00:31:42;;;;;;;41.13;18.65;;;2.30;99.90;;;;;;6154438;23;20028;-87
2021/12/11 00:34:12;;;;;;;31.65;17.45;;;3.70;99.90;;;;;;6154708;23;20059;-87
2021/12/11 00:36:38;;;;;;;29.92;16.55;;;4.70;99.90;;;;;;6154297;23;20397;-87
2021/12/11 00:39:13;;;;;;;28.10;15.68;;;4.30;99.90;;;;;;6154281;22;20017;-88
2021/12/11 00:41:40;;;;;;;33.47;16.42;;;2.10;99.90;;;;;;6154288;22;20013;-88
2021/12/11 00:44:06;;;;;;;39.75;16.00;;;2.40;99.90;;;;;;6154555;23;20096;-88
2021/12/11 00:46:33;;;;;;;36.92;15.45;;;2.00;99.90;;;;;;6154371;22;20408;-88
2021/12/11 00:49:07;;;;;;;37.60;14.27;;;2.20;99.90;;;;;;6155734;22;20025;-88
2021/12/11 00:51:33;;;;;;;24.08;12.75;;;2.20;99.90;;;;;;6259156;22;20017;-87
2021/12/11 00:53:59;;;;;;;35.55;17.88;;;3.10;99.90;;;;;;6154789;23;20024;-88
2021/12/11 00:56:31;;;;;;;29.70;17.80;;;4.40;99.90;;;;;;6154006;22;20013;-88
2021/12/11 00:59:02;;;;;;;30.45;18.67;;;4.20;99.90;;;;;;6154084;23;20017;-88
2021/12/11 01:01:33;;;;;;;30.60;17.25;;;2.00;99.90;;;;;;6129581;23;20013;-88
2021/12/11 01:04:16;;;;;;;30.85;18.30;;;2.00;99.90;;;;;;6154256;23;20028;-88
2021/12/11 01:06:49;;;;;;;29.35;16.23;;;2.20;99.90;;;;;;6154293;22;20404;-88
2021/12/11 01:09:21;;;;;;;31.48;16.85;;;2.00;99.90;;;;;;6154067;23;20017;-87
2021/12/11 01:11:53;;;;;;;32.65;17.08;;;1.90;99.90;;;;;;6154019;22;20021;-87
2021/12/11 01:14:32;;;;;;;31.30;18.60;;;3.10;99.90;;;;;;6153662;22;20028;-88
2021/12/11 01:17:20;;;;;;;30.90;17.65;;;1.80;99.90;;;;;;6153575;23;20024;-88
2021/12/11 01:19:51;;;;;;;31.05;17.23;;;1.90;99.90;;;;;;6153415;22;20017;-88
2021/12/11 01:22:33;;;;;;;30.27;16.80;;;3.80;99.90;;;;;;6153510;22;20020;-89
2021/12/11 01:25:09;;;;;;;28.50;16.08;;;1.90;99.90;;;;;;6153961;22;20013;-88
2021/12/11 01:27:36;;;;;;;39.42;11.73;;;1.80;99.90;;;;;;6257939;22;20017;-87
2021/12/11 01:30:05;;;;;;;21.27;12.98;;;1.60;99.90;;;;;;6154021;23;20024;-88
2021/12/11 01:32:32;;;;;;;31.73;13.18;;;0.90;99.90;;;;;;6153695;23;20418;-87
2021/12/11 01:35:00;;;;;;;30.67;15.40;;;0.00;99.90;;;;;;6258410;22;20028;-88
2021/12/11 01:37:27;;;;;;;1859.45;124.28;;;2.70;99.90;;;;;;6153578;23;20013;-88
2021/12/11 01:39:53;;;;;;;33.72;18.83;;;0.70;99.90;;;;;;6153704;23;20017;-87
2021/12/11 01:42:22;;;;;;;40.75;21.20;;;1.20;99.90;;;;;;6154993;22;20023;-87
2021/12/11 01:44:50;;;;;;;41.83;21.10;;;1.20;99.90;;;;;;6155033;23;20021;-87
2021/12/11 01:47:20;;;;;;;33.45;19.13;;;1.60;99.90;;;;;;6155054;23;20451;-88
2021/12/11 01:49:50;;;;;;;42.10;19.98;;;1.80;99.90;;;;;;6155326;22;20031;-88
2021/12/11 01:52:29;;;;;;;35.45;18.42;;;3.50;99.90;;;;;;6155286;23;20050;-87
2021/12/11 01:55:00;;;;;;;35.47;16.05;;;1.30;99.90;;;;;;6155265;22;20017;-87
2021/12/11 01:58:17;;;;;;;32.05;16.73;;;1.30;99.90;;;;;;6152771;22;20121;-87
2021/12/11 02:00:55;;;;;;;25.13;14.35;;;1.40;99.90;;;;;;6101239;23;20082;-87
2021/12/11 02:03:24;;;;;;;28.65;13.57;;;0.80;99.90;;;;;;6125554;23;20013;-88
2021/12/11 02:05:50;;;;;;;25.35;13.95;;;0.20;99.90;;;;;;6125651;23;20166;-87
2021/12/11 02:08:29;;;;;;;942.33;48.10;;;0.10;99.90;;;;;;6125687;23;20014;-88
2021/12/11 02:10:56;;;;;;;24.65;14.52;;;0.50;99.90;;;;;;6125673;23;20017;-86
2021/12/11 02:13:38;;;;;;;24.70;14.65;;;1.20;99.90;;;;;;6125626;23;20052;-87
2021/12/11 02:16:06;;;;;;;33.85;15.95;;;1.70;99.90;;;;;;6125653;23;20016;-87
2021/12/11 02:18:36;;;;;;;27.20;14.98;;;3.30;99.90;;;;;;6125743;23;20082;-88
2021/12/11 02:21:10;;;;;;;26.42;15.05;;;3.20;99.90;;;;;;6125427;23;20013;-88
2021/12/11 02:23:36;;;;;;;28.40;14.65;;;1.10;99.90;;;;;;6125403;23;20014;-88
2021/12/11 02:26:15;;;;;;;27.70;15.32;;;1.10;99.90;;;;;;6125450;23;20049;-88
2021/12/11 02:28:48;;;;;;;26.17;14.02;;;1.30;99.90;;;;;;6125587;23;20025;-87
2021/12/11 02:31:42;;;;;;;26.13;12.02;;;0.90;99.90;;;;;;6125705;23;20098;-87
2021/12/11 02:34:15;;;;;;;25.88;12.85;;;0.20;99.90;;;;;;6125570;23;20459;-87
2021/12/11 02:36:45;;;;;;;35.67;13.95;;;1.20;99.90;;;;;;6126112;23;20086;-87
2021/12/11 02:39:13;;;;;;;592.35;36.10;;;-0.90;99.90;;;;;;6125463;23;20018;-88
2021/12/11 02:41:51;;;;;;;112.65;18.85;;;0.40;99.90;;;;;;6125151;23;20412;-88
2021/12/11 02:44:28;;;;;;;32.30;15.88;;;0.30;99.90;;;;;;6125626;23;20029;-87
2021/12/11 02:47:05;;;;;;;30.83;16.38;;;0.40;99.90;;;;;;6125483;23;20117;-87
2021/12/11 02:49:40;;;;;;;52.67;18.33;;;2.20;99.90;;;;;;6125541;23;20029;-88
2021/12/11 02:52:13;;;;;;;33.47;16.55;;;1.50;99.90;;;;;;6124846;23;20045;-88
2021/12/11 02:54:44;;;;;;;30.38;15.95;;;0.60;99.90;;;;;;6125734;23;20020;-88
2021/12/11 02:57:16;;;;;;;30.33;15.85;;;2.70;99.90;;;;;;6125426;23;20467;-88
2021/12/11 02:59:44;;;;;;;31.27;16.13;;;0.70;99.90;;;;;;6140055;23;20022;-88
2021/12/11 03:02:16;;;;;;;36.65;18.25;;;0.80;99.90;;;;;;6149780;23;20017;-87
2021/12/11 03:04:50;;;;;;;32.83;18.33;;;1.10;99.90;;;;;;6150009;23;20017;-87
2021/12/11 03:07:20;;;;;;;40.08;18.88;;;1.20;99.90;;;;;;6150322;23;20017;-87
2021/12/11 03:09:52;;;;;;;26.23;14.75;;;1.10;99.90;;;;;;6150017;23;20078;-88
2021/12/11 03:12:19;;;;;;;29.17;15.60;;;1.40;99.90;;;;;;6150023;23;20316;-87
2021/12/11 03:14:47;;;;;;;54.50;15.85;;;0.90;99.90;;;;;;6150067;23;20022;-88
2021/12/11 03:17:14;;;;;;;31.13;17.23;;;0.70;99.90;;;;;;6149894;23;20101;-88
2021/12/11 03:19:43;;;;;;;30.23;16.88;;;1.30;99.90;;;;;;6149874;23;20020;-87
2021/12/11 03:22:15;;;;;;;25.70;13.45;;;1.20;99.90;;;;;;6149665;23;20394;-87
2021/12/11 03:24:40;;;;;;;21.75;13.73;;;1.10;99.90;;;;;;6150117;23;20041;-88
2021/12/11 03:27:06;;;;;;;32.90;17.85;;;0.90;99.90;;;;;;6149798;23;20021;-88
2021/12/11 03:29:32;;;;;;;28.20;15.60;;;0.70;99.90;;;;;;6150016;23;20397;-88
2021/12/11 03:31:58;;;;;;;41.53;16.27;;;3.00;99.90;;;;;;6149972;23;20053;-88
2021/12/11 03:34:27;;;;;;;33.58;17.13;;;0.80;99.90;;;;;;6149921;23;20045;-88
2021/12/11 03:36:55;;;;;;;32.53;17.25;;;0.40;99.90;;;;;;6150423;23;20021;-88
2021/12/11 03:39:27;;;;;;;33.25;16.60;;;0.80;99.90;;;;;;6149615;23;20009;-88
2021/12/11 03:41:55;;;;;;;27.05;15.57;;;0.70;99.90;;;;;;6149786;23;20093;-88
2021/12/11 03:44:21;;;;;;;28.40;16.15;;;0.50;99.90;;;;;;6149971;23;20093;-88
2021/12/11 03:46:52;;;;;;;28.15;14.50;;;0.40;99.90;;;;;;6149914;23;20013;-88
2021/12/11 03:49:22;;;;;;;29.77;15.82;;;1.80;99.90;;;;;;6149770;23;20014;-88
2021/12/11 03:51:49;;;;;;;201.98;22.42;;;0.00;99.90;;;;;;6149791;23;20017;-88
2021/12/11 03:54:20;;;;;;;37.92;17.30;;;2.30;99.90;;;;;;6150266;23;20348;-87
2021/12/11 03:56:46;;;;;;;209.55;22.92;;;1.20;99.90;;;;;;6149683;23;20053;-87
2021/12/11 03:59:13;;;;;;;39.97;19.48;;;2.60;99.90;;;;;;6148649;23;20018;-87
2021/12/11 04:01:45;;;;;;;39.35;20.45;;;1.00;99.90;;;;;;6149661;23;20030;-88
2021/12/11 04:04:18;;;;;;;38.60;19.67;;;0.80;99.90;;;;;;6149410;23;20714;-88
2021/12/11 04:06:45;;;;;;;36.42;19.42;;;1.30;99.90;;;;;;6149655;23;20398;-87
2021/12/11 04:09:14;;;;;;;49.10;22.58;;;1.90;99.90;;;;;;6149484;23;20352;-87
2021/12/11 04:11:41;;;;;;;44.20;20.23;;;2.70;99.90;;;;;;6149868;23;20045;-88
2021/12/11 04:14:14;;;;;;;31.35;19.33;;;1.40;99.90;;;;;;6150055;23;20056;-87
2021/12/11 04:16:40;;;;;;;1999.90;152.35;;;1.20;99.90;;;;;;6149832;23;20014;-89
2021/12/11 04:19:07;;;;;;;44.75;21.13;;;1.10;99.90;;;;;;6149770;23;20045;-87
2021/12/11 04:21:34;;;;;;;40.85;19.52;;;3.50;99.90;;;;;;6149409;23;20032;-87
2021/12/11 04:24:03;;;;;;;41.72;19.33;;;1.10;99.90;;;;;;6149849;23;20017;-86
2021/12/11 04:26:29;;;;;;;108.82;21.50;;;1.50;99.90;;;;;;6149608;23;20070;-87
2021/12/11 04:28:54;;;;;;;40.60;19.40;;;3.10;99.90;;;;;;6150353;23;20057;-88
2021/12/11 04:31:25;;;;;;;49.70;19.88;;;3.40;99.90;;;;;;6149566;23;20025;-87
2021/12/11 04:33:54;;;;;;;34.72;19.15;;;3.10;99.90;;;;;;6149405;23;20075;-87
2021/12/11 04:36:25;;;;;;;52.47;21.85;;;1.10;99.90;;;;;;6149424;23;20398;-88
2021/12/11 04:38:52;;;;;;;53.00;21.30;;;1.20;99.90;;;;;;6253672;22;20028;-88
2021/12/11 04:41:25;;;;;;;1999.90;382.15;;;1.10;99.90;;;;;;6149407;23;20060;-88
2021/12/11 04:43:54;;;;;;;76.10;21.63;;;1.20;99.90;;;;;;6149304;23;20010;-87
2021/12/11 04:46:20;;;;;;;49.63;20.95;;;3.00;99.90;;;;;;6149199;23;20025;-86
2021/12/11 04:49:00;;;;;;;40.53;20.90;;;1.80;99.90;;;;;;6149167;23;20678;-87
2021/12/11 04:51:38;;;;;;;42.78;20.30;;;1.40;99.90;;;;;;6149178;23;20025;-88
2021/12/11 04:59:32;;;;;;;37.78;18.40;;;1.60;99.90;;;;;;6153524;22;20678;-88
2021/12/11 05:02:29;;;;;;;33.15;18.25;;;1.30;99.90;;;;;;6124450;23;20109;-89
2021/12/11 05:05:09;;;;;;;34.42;17.02;;;1.20;99.90;;;;;;6124478;23;20028;-88
2021/12/11 05:10:22;;;;;;;36.22;17.90;;;1.40;99.90;;;;;;6124635;23;20021;-87
2021/12/11 05:12:52;;;;;;;32.63;18.20;;;1.20;99.90;;;;;;6124681;23;20269;-88
2021/12/11 05:15:22;;;;;;;30.95;18.05;;;2.10;99.90;;;;;;6124883;23;20018;-89
2021/12/11 05:17:48;;;;;;;40.22;18.45;;;2.10;99.90;;;;;;6126118;23;20013;-88
2021/12/11 05:20:17;;;;;;;34.63;18.45;;;1.70;99.90;;;;;;6125880;23;20325;-88
2021/12/11 05:22:43;;;;;;;39.30;19.88;;;1.70;99.90;;;;;;6126025;23;20017;-88
2021/12/11 05:25:10;;;;;;;38.78;18.73;;;2.60;99.90;;;;;;6125956;23;20025;-89
2021/12/11 05:27:38;;;;;;;36.50;19.13;;;3.00;99.90;;;;;;6126164;23;20087;-88
2021/12/11 05:30:11;;;;;;;409.90;34.17;;;1.00;99.90;;;;;;6150483;23;20045;-88
2021/12/11 05:32:38;;;;;;;35.65;18.25;;;0.80;99.90;;;;;;6126153;23;20017;-87
2021/12/11 05:35:05;;;;;;;42.70;17.33;;;2.70;99.90;;;;;;6125891;23;20013;-87
2021/12/11 05:37:31;;;;;;;93.30;18.80;;;0.80;99.90;;;;;;6125853;23;20013;-87
2021/12/11 05:39:57;;;;;;;335.85;24.55;;;1.30;99.90;;;;;;6126049;23;20037;-88
2021/12/11 05:42:23;;;;;;;178.73;22.27;;;0.70;99.90;;;;;;6125987;23;20045;-88
2021/12/11 05:44:49;;;;;;;75.25;20.30;;;3.10;99.90;;;;;;6125940;23;20014;-88
2021/12/11 05:47:16;;;;;;;209.10;22.58;;;0.50;99.90;;;;;;6126298;23;20459;-88
2021/12/11 05:49:44;;;;;;;307.15;23.23;;;2.90;99.90;;;;;;6126174;23;20018;-88
2021/12/11 05:52:12;;;;;;;244.73;23.35;;;0.60;99.90;;;;;;6150255;23;20018;-88
2021/12/11 05:54:40;;;;;;;199.18;20.88;;;2.10;99.90;;;;;;6126216;23;20455;-88
2021/12/11 05:57:11;;;;;;;243.85;22.27;;;2.60;99.90;;;;;;6150190;23;20025;-88
2021/12/11 06:03:18;;;;;;;124.18;17.55;;;0.40;99.90;;;;;;6280850;22;20019;-88
2021/12/11 06:05:45;;;;;;;931.15;52.40;;;-0.20;99.90;;;;;;6281081;22;20157;-88
2021/12/11 06:08:12;;;;;;;279.35;20.75;;;2.00;99.90;;;;;;6281148;22;20011;-87
2021/12/11 06:10:40;;;;;;;277.20;21.05;;;0.00;99.90;;;;;;6280991;22;20344;-88
2021/12/11 06:13:07;;;;;;;265.42;19.70;;;1.60;99.90;;;;;;6280995;22;20015;-88
2021/12/11 06:15:33;;;;;;;264.70;20.40;;;-0.30;99.90;;;;;;6281173;22;20468;-89
2021/12/11 06:17:59;;;;;;;214.15;17.83;;;0.40;99.90;;;;;;6281072;22;20015;-88
2021/12/11 06:20:28;;;;;;;170.23;18.08;;;1.40;99.90;;;;;;6281054;22;20103;-88
2021/12/11 06:22:54;;;;;;;109.88;16.42;;;0.70;99.90;;;;;;6280970;22;20096;-88
2021/12/11 06:25:25;;;;;;;155.38;18.92;;;1.80;99.90;;;;;;6281160;22;20011;-88
2021/12/11 06:27:51;;;;;;;105.60;16.58;;;0.10;99.90;;;;;;6280892;22;20011;-89
2021/12/11 06:30:18;;;;;;;344.17;24.38;;;0.10;99.90;;;;;;6281279;22;20047;-89
2021/12/11 06:32:46;;;;;;;92.15;17.23;;;0.80;99.90;;;;;;6281490;22;20007;-88
2021/12/11 06:35:22;;;;;;;64.10;13.65;;;0.30;99.90;;;;;;6306563;22;20012;-88
2021/12/11 06:37:48;;;;;;;80.85;14.38;;;-0.40;99.90;;;;;;6280762;22;20666;-90
2021/12/11 06:40:14;;;;;;;83.50;13.40;;;-0.50;99.90;;;;;;6281217;22;20015;-89
2021/12/11 06:42:40;;;;;;;94.75;13.07;;;1.90;99.90;;;;;;6280847;22;20385;-89
2021/12/11 06:45:06;;;;;;;93.88;13.60;;;0.70;99.90;;;;;;6255315;22;20041;-89
2021/12/11 06:47:32;;;;;;;98.05;14.90;;;-0.10;99.90;;;;;;6280844;22;20114;-89
2021/12/11 06:49:58;;;;;;;191.90;17.55;;;1.70;99.90;;;;;;6281332;22;20103;-89
2021/12/11 06:52:25;;;;;;;332.00;20.20;;;-0.70;99.90;;;;;;6280837;22;20155;-88
2021/12/11 06:54:51;;;;;;;109.30;15.95;;;1.30;99.90;;;;;;6280912;22;20113;-88
2021/12/11 06:57:18;;;;;;;146.80;16.10;;;1.60;99.90;;;;;;6280970;22;20026;-88
2021/12/11 06:59:44;;;;;;;139.10;14.73;;;1.50;99.90;;;;;;6280970;22;20011;-89
2021/12/11 07:02:10;;;;;;;126.40;14.75;;;0.00;99.90;;;;;;6207130;22;20024;-89
2021/12/11 07:04:37;;;;;;;274.25;17.90;;;0.10;99.90;;;;;;6125900;23;20096;-88
2021/12/11 07:07:04;;;;;;;560.90;37.20;;;0.80;99.90;;;;;;6125840;23;20040;-89
2021/12/11 07:09:30;;;;;;;237.70;19.20;;;0.30;99.90;;;;;;6125766;23;20017;-88
2021/12/11 07:11:57;;;;;;;268.38;19.60;;;-0.60;99.90;;;;;;6125524;23;20025;-89
2021/12/11 07:14:25;;;;;;;274.33;18.17;;;-0.10;99.90;;;;;;6228505;23;20009;-90
2021/12/11 07:16:51;;;;;;;398.02;22.60;;;0.20;99.90;;;;;;6125768;23;20808;-88
2021/12/11 07:19:18;;;;;;;352.38;20.55;;;-0.70;99.90;;;;;;6125921;23;20010;-88
2021/12/11 07:21:46;;;;;;;269.42;17.50;;;1.30;99.90;;;;;;6125157;23;20024;-89
2021/12/11 07:24:14;;;;;;;234.88;18.65;;;-0.90;99.90;;;;;;6228646;23;20082;-89
2021/12/11 07:26:40;;;;;;;232.23;16.98;;;-1.10;99.90;;;;;;6150431;23;20356;-90
2021/12/11 07:29:13;;;;;;;159.82;16.30;;;1.10;99.90;;;;;;6126468;23;20018;-89
2021/12/11 07:31:41;;;;;;;156.45;15.55;;;1.00;99.90;;;;;;6126959;23;20020;-88
2021/12/11 07:34:07;;;;;;;119.43;13.82;;;-1.10;99.90;;;;;;6125602;23;20022;-88
2021/12/11 07:36:33;;;;;;;232.27;18.77;;;-1.00;99.90;;;;;;6126130;23;20056;-86
2021/12/11 07:39:02;;;;;;;286.65;21.67;;;-0.70;99.90;;;;;;6125451;23;20017;-88
2021/12/11 07:41:28;;;;;;;197.38;17.60;;;-0.90;99.90;;;;;;6125329;23;20017;-88
2021/12/11 07:43:54;;;;;;;260.27;17.88;;;1.20;99.90;;;;;;6125127;23;20062;-88
2021/12/11 07:46:24;;;;;;;289.85;22.98;;;0.80;99.90;;;;;;6125666;23;20017;-88
2021/12/11 07:48:50;;;;;;;319.95;28.02;;;-0.10;99.90;;;;;;6125634;23;20093;-88
2021/12/11 07:51:18;;;;;;;258.08;20.42;;;0.00;99.90;;;;;;6125417;23;20101;-88
2021/12/11 07:53:44;;;;;;;250.32;19.80;;;1.00;99.90;;;;;;6123670;23;20024;-87
2021/12/11 07:56:11;;;;;;;326.73;24.65;;;1.40;99.90;;;;;;6125240;23;20092;-88
2021/12/11 07:58:37;;;;;;;312.02;24.10;;;-0.70;99.90;;;;;;6151551;23;20020;-88
2021/12/11 08:01:06;;;;;;;327.45;24.40;;;0.20;99.90;;;;;;6125406;23;20041;-88
2021/12/11 08:03:33;;;;;;;156.43;17.85;;;-0.80;99.90;;;;;;6139527;23;20020;-88
2021/12/11 08:05:58;;;;;;;215.23;21.60;;;2.20;99.90;;;;;;6149722;23;20028;-87
2021/12/11 08:08:25;;;;;;;206.00;21.17;;;0.30;99.90;;;;;;6149499;23;20518;-76
2021/12/11 08:10:56;;;;;;;150.75;18.58;;;0.40;99.90;;;;;;6149575;23;20070;-87
2021/12/11 08:13:22;;;;;;;46.85;17.80;;;0.70;99.90;;;;;;6149658;23;20024;-87
2021/12/11 08:15:49;;;;;;;83.65;22.02;;;0.10;99.90;;;;;;6149704;23;20045;-83
2021/12/11 08:18:17;;;;;;;39.60;19.23;;;0.80;99.90;;;;;;6149871;23;20018;-88
2021/12/11 08:20:44;;;;;;;33.78;16.10;;;1.90;99.90;;;;;;6149663;23;20048;-88
2021/12/11 08:23:12;;;;;;;41.72;19.75;;;1.00;99.90;;;;;;6149342;23;20025;-89
2021/12/11 08:25:39;;;;;;;295.80;28.75;;;0.40;99.90;;;;;;6149675;23;20351;-88
2021/12/11 08:28:07;;;;;;;51.10;23.58;;;1.00;99.90;;;;;;6149912;23;20155;-86
2021/12/11 08:30:35;;;;;;;45.50;24.45;;;1.20;99.90;;;;;;6149269;23;20021;-87
2021/12/11 08:33:02;;;;;;;46.42;21.67;;;2.80;99.90;;;;;;6149483;23;20021;-88
2021/12/11 08:35:28;;;;;;;47.97;23.17;;;3.50;99.90;;;;;;6149432;23;20329;-88
2021/12/11 08:37:54;;;;;;;40.72;20.13;;;3.70;99.90;;;;;;6149667;23;20017;-87
2021/12/11 08:40:28;;;;;;;33.00;19.52;;;3.60;99.90;;;;;;6149473;23;20356;-87
2021/12/11 08:42:57;;;;;;;32.22;18.98;;;2.70;99.90;;;;;;6149574;23;20021;-87
2021/12/11 08:45:36;;;;;;;32.45;19.23;;;3.60;99.90;;;;;;6149289;23;20084;-88
2021/12/11 08:48:02;;;;;;;32.88;17.20;;;3.50;99.90;;;;;;6149471;23;20021;-87
2021/12/11 08:50:31;;;;;;;30.13;17.88;;;2.30;99.90;;;;;;6149561;23;20013;-87
2021/12/11 08:52:58;;;;;;;35.47;18.63;;;2.90;99.90;;;;;;6150338;23;20044;-87
2021/12/11 08:55:31;;;;;;;31.92;17.55;;;4.30;99.90;;;;;;6150391;23;20018;-87
2021/12/11 08:57:58;;;;;;;36.40;20.80;;;3.50;99.90;;;;;;6150606;23;20017;-87
2021/12/11 09:00:31;;;;;;;38.50;20.02;;;3.40;99.90;;;;;;6150242;23;20013;-87
2021/12/11 09:03:22;;;;;;;36.33;18.80;;;2.90;99.90;;;;;;6150143;23;20013;-87
2021/12/11 09:06:04;;;;;;;32.40;18.48;;;4.00;99.90;;;;;;6154712;23;20017;-86
2021/12/11 09:08:39;;;;;;;37.40;18.55;;;3.90;99.90;;;;;;6154973;23;20084;-86
2021/12/11 09:11:10;;;;;;;41.00;20.40;;;4.40;99.90;;;;;;6155034;23;20300;-79
2021/12/11 09:13:42;;;;;;;34.40;17.80;;;3.20;99.90;;;;;;6154944;23;20013;-87
2021/12/11 09:16:23;;;;;;;33.13;18.48;;;3.30;99.90;;;;;;6155288;23;20074;-87
2021/12/11 09:18:53;;;;;;;30.88;17.58;;;4.20;99.90;;;;;;6155441;22;20070;-88
2021/12/11 09:21:26;;;;;;;37.50;21.55;;;3.60;99.90;;;;;;6155432;23;20092;-87
2021/12/11 09:24:03;;;;;;;43.47;20.67;;;4.20;99.90;;;;;;6155580;23;20020;-88
2021/12/11 09:26:42;;;;;;;36.97;19.38;;;4.60;99.90;;;;;;6155223;22;20343;-88
2021/12/11 09:29:41;;;;;;;35.35;19.35;;;4.20;99.90;;;;;;6155550;23;20118;-87
2021/12/11 09:32:15;;;;;;;31.02;17.98;;;3.40;99.90;;;;;;6155090;23;20022;-87
2021/12/11 09:34:47;;;;;;;41.33;21.05;;;3.50;99.90;;;;;;6155275;23;20380;-86
2021/12/11 09:37:13;;;;;;;40.53;21.08;;;6.60;99.90;;;;;;6155086;22;20017;-85
2021/12/11 09:39:46;;;;;;;47.28;20.98;;;5.70;99.90;;;;;;6155166;23;20017;-85
2021/12/11 09:42:11;;;;;;;56.67;21.65;;;7.20;99.90;;;;;;6155293;23;20369;-85
2021/12/11 09:44:47;;;;;;;47.35;19.58;;;6.70;99.90;;;;;;6155093;23;20021;-85
2021/12/11 09:47:19;;;;;;;42.30;16.75;;;5.70;99.90;;;;;;6155329;23;20017;-86
2021/12/11 09:49:56;;;;;;;35.45;16.70;;;4.90;99.90;;;;;;6155215;23;20092;-85
2021/12/11 09:52:29;;;;;;;38.63;16.77;;;7.30;99.90;;;;;;6259763;22;20013;-86
2021/12/11 09:55:03;;;;;;;36.67;18.65;;;5.40;99.90;;;;;;6155267;23;20013;-86
2021/12/11 09:57:32;;;;;;;39.05;18.92;;;6.00;99.90;;;;;;6155688;23;20019;-86
2021/12/11 10:00:00;;;;;;;43.90;17.35;;;6.10;99.90;;;;;;6155229;22;20092;-85
2021/12/11 10:02:30;;;;;;;36.25;16.17;;;6.40;99.90;;;;;;6154707;23;20036;-86
2021/12/11 10:05:01;;;;;;;35.85;16.48;;;7.40;99.90;;;;;;6149743;23;20100;-85
2021/12/11 10:07:36;;;;;;;35.53;17.73;;;6.20;99.90;;;;;;6150385;23;20018;-86
2021/12/11 10:10:19;;;;;;;32.72;16.35;;;5.90;99.90;;;;;;6151415;23;20018;-85
2021/12/11 10:12:49;;;;;;;32.53;15.00;;;6.70;99.90;;;;;;6156695;23;20020;-86
2021/12/11 10:15:27;;;;;;;36.33;16.55;;;8.50;99.90;;;;;;6152963;23;20100;-87
2021/12/11 10:17:58;;;;;;;42.92;16.05;;;6.70;99.90;;;;;;6149938;23;20069;-86
2021/12/11 10:20:34;;;;;;;43.78;16.85;;;7.50;99.90;;;;;;6149810;23;20114;-87
2021/12/11 10:23:04;;;;;;;29.08;12.50;;;6.60;99.90;;;;;;6149812;23;20021;-85
2021/12/11 10:25:33;;;;;;;31.83;14.88;;;6.70;99.90;;;;;;6150064;23;20060;-86
2021/12/11 10:28:03;;;;;;;28.98;15.63;;;8.00;99.90;;;;;;6149786;23;20391;-87
2021/12/11 10:30:32;;;;;;;37.33;16.35;;;9.10;99.90;;;;;;6150278;23;20336;-86
2021/12/11 10:32:58;;;;;;;34.17;16.33;;;7.10;99.90;;;;;;6150300;23;20331;-86
2021/12/11 10:35:32;;;;;;;30.52;14.40;;;7.40;99.90;;;;;;6149695;23;20090;-86
2021/12/11 10:38:00;;;;;;;35.65;15.20;;;8.60;99.90;;;;;;6149914;23;20018;-86
2021/12/11 10:40:31;;;;;;;29.75;14.25;;;7.20;99.90;;;;;;6125433;23;20044;-86
2021/12/11 10:43:05;;;;;;;27.55;12.15;;;8.00;99.90;;;;;;6151827;23;20118;-86
2021/12/11 10:45:33;;;;;;;29.77;13.50;;;7.30;99.90;;;;;;6150369;23;20021;-87
2021/12/11 10:48:03;;;;;;;31.40;15.07;;;9.30;99.90;;;;;;6150815;23;20025;-87
2021/12/11 10:50:36;;;;;;;57.05;34.22;;;7.50;99.90;;;;;;6150014;23;20505;-87
2021/12/11 10:53:05;;;;;;;56.13;32.10;;;7.30;99.90;;;;;;6150279;23;20386;-87
2021/12/11 10:55:33;;;;;;;46.63;24.27;;;8.70;99.90;;;;;;6150443;23;20022;-87
2021/12/11 10:58:03;;;;;;;45.65;22.70;;;7.50;99.90;;;;;;6149715;23;20022;-86
2021/12/11 11:00:35;;;;;;;38.00;22.40;;;7.90;99.90;;;;;;6254613;22;20029;-85
2021/12/11 11:03:01;;;;;;;31.90;18.20;;;9.40;99.90;;;;;;6150018;23;20040;-86
2021/12/11 11:05:29;;;;;;;30.65;15.80;;;7.70;99.90;;;;;;6147388;23;20025;-81
2021/12/11 11:07:56;;;;;;;26.08;14.13;;;7.50;99.90;;;;;;6149520;23;20021;-86
2021/12/11 11:10:28;;;;;;;36.67;14.98;;;7.70;99.90;;;;;;6149954;23;20014;-86
2021/12/11 11:12:57;;;;;;;31.25;14.40;;;7.50;99.90;;;;;;6151084;23;20109;-86
2021/12/11 11:15:24;;;;;;;34.75;14.40;;;7.60;99.90;;;;;;6150299;23;20017;-86
2021/12/11 11:17:51;;;;;;;33.55;14.68;;;7.60;99.90;;;;;;6150099;23;20024;-86
2021/12/11 11:20:24;;;;;;;36.33;14.48;;;8.40;99.90;;;;;;6149817;23;20013;-86
2021/12/11 11:22:50;;;;;;;29.83;15.20;;;7.20;99.90;;;;;;6149558;23;20022;-86
2021/12/11 11:25:22;;;;;;;34.38;17.10;;;8.70;99.90;;;;;;6150027;23;20059;-85
2021/12/11 11:27:52;;;;;;;29.67;15.20;;;7.60;99.90;;;;;;6254023;22;20017;-85
2021/12/11 11:30:22;;;;;;;30.67;15.23;;;8.90;99.90;;;;;;6149362;23;20045;-85
2021/12/11 11:32:48;;;;;;;29.30;14.23;;;8.90;99.90;;;;;;6149503;23;20040;-85
2021/12/11 11:35:21;;;;;;;28.27;15.18;;;7.30;99.90;;;;;;6149904;23;20151;-86
2021/12/11 11:37:50;;;;;;;28.08;13.20;;;8.80;99.90;;;;;;6149439;23;20025;-86
2021/12/11 11:40:21;;;;;;;30.55;14.55;;;9.20;99.90;;;;;;6149440;23;20098;-86
2021/12/11 11:42:53;;;;;;;31.70;14.18;;;9.10;99.90;;;;;;6149656;23;20014;-89
2021/12/11 11:45:19;;;;;;;35.28;12.95;;;8.40;99.90;;;;;;6150024;23;20022;-85
2021/12/11 11:47:46;;;;;;;28.30;14.10;;;8.30;99.90;;;;;;6150002;23;20017;-85
2021/12/11 11:50:16;;;;;;;27.77;12.98;;;8.10;99.90;;;;;;6151207;23;20025;-85
2021/12/11 11:52:42;;;;;;;26.95;13.63;;;7.90;99.90;;;;;;6149402;23;20451;-84
2021/12/11 11:55:13;;;;;;;18.33;10.15;;;6.80;99.90;;;;;;6149904;23;20022;-85
2021/12/11 11:57:43;;;;;;;23.08;11.43;;;6.80;99.90;;;;;;6149841;23;20021;-86
2021/12/11 12:00:21;;;;;;;43.05;14.63;;;9.40;99.90;;;;;;6149392;23;20086;-85
2021/12/11 12:02:51;;;;;;;26.20;13.18;;;8.40;99.90;;;;;;6149482;23;20065;-84
2021/12/11 12:05:17;;;;;;;31.63;12.98;;;7.60;99.90;;;;;;6148809;23;20347;-84
2021/12/11 12:07:45;;;;;;;27.25;12.25;;;8.70;99.90;;;;;;6149643;23;20022;-85
2021/12/11 12:10:15;;;;;;;20.63;11.80;;;7.80;99.90;;;;;;6149908;23;20080;-84
2021/12/11 12:12:41;;;;;;;28.13;13.05;;;7.60;99.90;;;;;;6149628;23;20325;-84
2021/12/11 12:15:13;;;;;;;33.35;14.80;;;7.60;99.90;;;;;;6149780;23;20029;-84
2021/12/11 12:17:39;;;;;;;28.52;13.23;;;8.00;99.90;;;;;;6149521;23;20013;-85
2021/12/11 12:20:09;;;;;;;27.95;13.20;;;8.00;99.90;;;;;;6149591;23;20078;-84
2021/12/11 12:22:36;;;;;;;22.58;12.27;;;8.60;99.90;;;;;;6149363;23;20048;-84
2021/12/11 12:25:04;;;;;;;22.52;11.32;;;7.60;99.90;;;;;;6149393;23;20024;-85
2021/12/11 12:27:33;;;;;;;30.13;11.98;;;7.30;99.90;;;;;;6149389;23;20026;-84
2021/12/11 12:30:01;;;;;;;33.70;13.45;;;7.80;99.90;;;;;;6149887;23;20024;-84
2021/12/11 12:32:55;;;;;;;32.20;14.18;;;7.80;99.90;;;;;;6150899;23;20016;-85
2021/12/11 12:35:26;;;;;;;24.45;9.93;;;8.00;99.90;;;;;;6149322;23;20053;-85
2021/12/11 12:37:52;;;;;;;32.70;12.75;;;10.30;99.90;;;;;;6149722;23;20403;-86
2021/12/11 12:40:27;;;;;;;30.33;12.73;;;8.30;99.90;;;;;;6149376;23;20013;-87
2021/12/11 12:43:09;;;;;;;30.42;12.80;;;8.50;99.90;;;;;;6150664;23;20013;-87
2021/12/11 12:45:46;;;;;;;24.73;12.57;;;8.20;99.90;;;;;;6175381;23;20400;-88
2021/12/11 12:48:16;;;;;;;32.33;12.80;;;10.30;99.90;;;;;;6150065;23;20022;-87
2021/12/11 12:50:53;;;;;;;25.20;11.48;;;8.10;99.90;;;;;;6174605;23;20013;-86
2021/12/11 12:53:20;;;;;;;31.25;11.70;;;8.10;99.90;;;;;;6149323;23;20022;-86
2021/12/11 12:55:50;;;;;;;27.33;12.48;;;9.10;99.90;;;;;;6149314;23;20018;-87
2021/12/11 12:58:22;;;;;;;26.00;11.80;;;8.30;99.90;;;;;;6149800;23;20022;-86
2021/12/11 13:01:02;;;;;;;34.20;11.95;;;8.60;99.90;;;;;;6253532;22;20387;-85